Main page
METAR-TAF:

METAR-TAF

Airports :

Khorramabad Airport

Khorramabad, Iran

latitude: 33-26-11N, longitude: 048-17-09E, elevation: 1155 m

Current weather observation

The report was made 59 minutes ago, at 09:00 UTC
Wind 2 kt from the East
Temperature 19°C
Humidity 32%
Pressure 1013 hPa
Visibility 10 km or more
Few clouds at a height of 4000 ft

METAR: OICK 130900Z 08002KT 9999 FEW040 19/02 Q1013 A2991

Time: 14:29 (09:59 UTC)


TAF: missing

Weather observations and forecasts of more than 4000 airports (METAR and TAF reports).

The available stations are represented by yellow and red dots on the map.

Hover mouse over dot to see the name of the station.

Then click to see weather observations and forecasts.

To change the map : click on the green buttons with a black cross to zoom in, on the green button with a dash to zoom out, or on the green arrows for adjacent maps.


METAR-TAF: